Time;durP1;ratioP1;P1;durP2;ratioP2;P2;SDS_P1;SDS_P2;PMS_P1;PMS_P2;Temp;Humidity;BMP_temperature;BMP_pressure;BME280_temperature;BME280_humidity;BME280_pressure;Samples;Min_cycle;Max_cycle;Signal;HPM_P1;HPM_P2
2022/02/19 00:00:52;;;;;;;7.07;1.25;;;7.80;12.20;;;8.05;50.27;98824.59;4973153;28;20176;-76
2022/02/19 00:03:22;;;;;;;4.97;1.05;;;7.90;10.70;;;8.07;49.81;98839.47;4972633;28;20184;-76
2022/02/19 00:05:51;;;;;;;6.40;1.30;;;7.90;10.30;;;8.05;50.03;98825.41;4972679;28;20737;-77
2022/02/19 00:08:19;;;;;;;5.90;1.38;;;7.90;10.10;;;8.00;49.96;98819.91;4972378;28;20192;-78
2022/02/19 00:10:47;;;;;;;5.03;1.52;;;7.90;10.00;;;8.00;49.84;98833.38;4972970;28;20198;-76
2022/02/19 00:13:16;;;;;;;4.22;1.55;;;7.90;9.80;;;8.01;49.31;98820.72;4975709;28;20183;-77
2022/02/19 00:15:47;;;;;;;2.50;1.00;;;7.90;8.80;;;7.96;49.43;98807.97;4978368;28;20207;-75
2022/02/19 00:18:15;;;;;;;6.40;2.22;;;7.80;9.00;;;7.98;49.14;98837.38;4981740;28;20228;-75
2022/02/19 00:20:45;;;;;;;2.13;1.13;;;7.90;8.80;;;7.97;49.72;98849.19;4972732;28;20195;-77
2022/02/19 00:23:14;;;;;;;5.05;1.77;;;7.90;9.00;;;7.96;49.55;98853.75;4973926;28;20168;-76
2022/02/19 00:25:42;;;;;;;3.75;1.52;;;7.80;8.80;;;7.95;nan;98844.03;4974083;28;20175;-77
2022/02/19 00:28:11;;;;;;;4.47;1.20;;;7.90;9.30;;;7.94;50.13;98826.22;4974710;28;20198;-76
2022/02/19 00:30:39;;;;;;;5.28;1.52;;;7.80;9.50;;;7.91;50.94;98837.47;4979031;28;20246;-76
2022/02/19 00:33:08;;;;;;;5.53;1.85;;;7.80;10.40;;;7.87;51.46;98857.84;4979948;28;20196;-75
2022/02/19 00:35:36;;;;;;;4.00;1.33;;;7.80;10.90;;;7.88;51.42;98840.66;4980362;28;20302;-76
2022/02/19 00:38:06;;;;;;;3.25;1.70;;;7.80;11.10;;;7.84;51.60;98842.19;4974348;28;20227;-76
2022/02/19 00:40:34;;;;;;;11.35;2.28;;;7.70;10.80;;;7.82;51.49;98850.47;4987594;28;20557;-76
2022/02/19 00:43:02;;;;;;;6.32;1.60;;;7.70;11.20;;;7.82;51.03;98855.03;4972401;28;20176;-76
2022/02/19 00:45:31;;;;;;;4.30;1.42;;;7.70;10.60;;;7.79;51.47;98845.53;4972490;28;20188;-76
2022/02/19 00:48:01;;;;;;;5.13;2.05;;;7.70;10.90;;;7.78;51.11;98843.09;4972354;28;20677;-75
2022/02/19 00:50:29;;;;;;;12.27;2.30;;;7.70;10.30;;;7.78;51.15;98848.50;4971141;28;20216;-75
2022/02/19 00:52:58;;;;;;;4.75;1.88;;;7.70;10.50;;;7.77;51.34;98853.06;4972100;28;20364;-76
2022/02/19 00:55:28;;;;;;;3.65;2.30;;;7.60;10.40;;;7.76;50.76;98861.34;4971411;28;20199;-75
2022/02/19 00:57:57;;;;;;;6.63;2.00;;;7.60;10.00;;;7.73;50.55;98845.69;4972457;28;20210;-77
2022/02/19 01:00:25;;;;;;;3.25;1.05;;;7.60;9.70;;;7.70;50.57;98878.44;4972151;28;20298;-77
2022/02/19 01:03:14;;;;;;;8.88;2.80;;;7.60;9.60;;;7.70;50.40;98862.28;4969390;28;20327;-76
2022/02/19 01:05:43;;;;;;;7.47;1.85;;;7.60;9.30;;;7.67;50.55;98868.97;4971434;28;20206;-77
2022/02/19 01:08:11;;;;;;;6.57;2.35;;;7.50;9.60;;;7.69;nan;98857.97;4971517;28;20183;-76
2022/02/19 01:10:41;;;;;;;3.83;1.13;;;7.50;8.20;;;7.67;49.69;98858.19;4970923;28;20242;-76
2022/02/19 01:13:09;;;;;;;5.35;2.50;;;7.60;8.00;;;7.62;49.77;98866.16;4986802;28;20188;-75
2022/02/19 01:15:38;;;;;;;3.22;1.73;;;7.50;8.00;;;7.63;49.31;98862.41;4971946;28;20180;-75
2022/02/19 01:18:06;;;;;;;14.07;2.10;;;7.50;7.40;;;7.62;48.98;98860.75;4987061;28;20195;-76
2022/02/19 01:20:41;;;;;;;4.35;1.45;;;7.50;7.10;;;7.61;48.47;98882.53;4970644;28;20183;-76
2022/02/19 01:23:10;;;;;;;6.70;1.65;;;7.50;6.80;;;7.58;48.85;98864.16;4973243;28;20542;-74
2022/02/19 01:25:39;;;;;;;3.33;1.85;;;7.50;6.50;;;7.59;47.91;98871.19;4973041;28;20747;-75
2022/02/19 01:28:09;;;;;;;7.97;1.80;;;7.50;5.70;;;7.52;47.66;98832.78;4971383;28;20519;-75
2022/02/19 01:30:37;;;;;;;4.38;1.50;;;7.40;5.30;;;7.54;47.88;98850.34;4971712;28;20213;-76
2022/02/19 01:33:06;;;;;;;5.43;1.95;;;7.40;5.10;;;7.53;47.08;98851.38;4972016;28;20191;-75
2022/02/19 01:35:35;;;;;;;7.15;2.92;;;7.40;4.60;;;7.53;47.07;98840.63;5011395;23;20653;-68
2022/02/19 01:38:03;;;;;;;8.93;2.65;;;7.40;4.50;;;7.64;45.75;98853.28;4986547;28;20714;-69
2022/02/19 01:40:32;;;;;;;5.05;1.40;;;7.50;2.80;;;7.61;46.38;98855.59;4961189;29;20657;-69
2022/02/19 01:43:01;;;;;;;3.38;1.23;;;7.50;3.20;;;7.61;46.57;98842.13;4956585;29;20198;-69
2022/02/19 01:45:33;;;;;;;6.65;2.20;;;7.40;3.20;;;7.62;46.30;98871.53;4953402;29;20212;-69
2022/02/19 01:48:02;;;;;;;5.97;2.22;;;7.50;2.90;;;7.61;45.48;98842.97;4981125;23;20305;-76
2022/02/19 01:50:31;;;;;;;6.20;1.55;;;7.50;1.90;;;7.60;45.82;98867.44;4974027;28;20641;-78
2022/02/19 01:53:04;;;;;;;7.05;2.28;;;7.50;2.50;;;7.61;44.97;98851.03;4974407;28;20661;-74
2022/02/19 01:55:48;;;;;;;4.93;2.03;;;7.50;1.20;;;7.69;44.15;98866.88;4973162;28;20579;-76
2022/02/19 01:58:27;;;;;;;6.55;1.80;;;7.60;1.00;;;7.69;44.52;98872.25;4964687;28;20224;-74
2022/02/19 02:01:37;;;;;;;4.80;1.80;;;7.60;1.00;;;7.67;44.32;98895.88;4952414;28;20212;-74
2022/02/19 02:04:12;;;;;;;7.80;2.50;;;7.60;1.00;;;7.66;44.85;98856.53;4955939;29;20242;-74
2022/02/19 02:06:43;;;;;;;3.95;2.78;;;7.50;1.00;;;7.59;44.26;98836.19;4955610;29;20212;-75
2022/02/19 02:09:15;;;;;;;7.72;1.95;;;7.50;1.00;;;7.62;44.68;98865.31;4954802;29;20311;-73
2022/02/19 02:11:46;;;;;;;23.75;2.65;;;7.50;1.00;;;7.58;44.79;98874.91;4959843;29;20216;-74
2022/02/19 02:14:17;;;;;;;5.40;2.30;;;7.50;1.00;;;7.56;44.69;98869.75;4960286;28;20251;-74
2022/02/19 02:17:05;;;;;;;3.53;1.80;;;7.50;1.00;;;7.47;44.85;98867.63;4957664;29;20185;-74
2022/02/19 02:19:35;;;;;;;7.80;2.03;;;7.40;1.00;;;7.43;44.70;98881.56;4976097;28;20662;-75
2022/02/19 02:22:19;;;;;;;13.63;2.50;;;7.40;1.00;;;7.37;44.98;98866.31;4961240;29;20180;-74
2022/02/19 02:24:49;;;;;;;5.22;1.90;;;7.30;1.00;;;7.39;44.52;98861.56;4961151;28;20677;-73
2022/02/19 02:27:29;;;;;;;5.22;2.55;;;7.30;1.00;;;7.35;45.03;98851.47;4964436;28;20192;-74
2022/02/19 02:29:58;;;;;;;9.65;2.17;;;7.30;1.00;;;7.32;44.66;98844.69;4963954;29;20192;-73
2022/02/19 02:32:34;;;;;;;8.05;1.92;;;7.20;1.00;;;7.32;44.05;98849.22;4966003;29;20565;-75
2022/02/19 02:35:03;;;;;;;7.68;2.53;;;7.20;1.00;;;7.29;44.72;98855.91;4963511;29;20268;-74
2022/02/19 02:37:39;;;;;;;5.68;1.90;;;7.20;1.00;;;7.31;44.37;98886.06;4963898;29;20184;-74
2022/02/19 02:40:10;;;;;;;4.75;2.00;;;7.20;1.00;;;7.37;44.23;98869.03;4965201;29;20208;-74
2022/02/19 02:42:39;;;;;;;7.13;2.33;;;7.20;1.00;;;7.40;44.17;98862.38;4964986;29;20184;-73
2022/02/19 02:45:11;;;;;;;7.32;2.30;;;7.30;1.00;;;7.43;44.01;98878.88;4967140;29;20188;-72
2022/02/19 02:47:59;;;;;;;3.40;1.58;;;7.30;1.00;;;7.45;43.50;98875.13;4959501;28;20238;-75
2022/02/19 02:50:33;;;;;;;2.67;1.45;;;7.30;1.00;;;7.45;43.29;98875.97;4956896;29;20202;-75
2022/02/19 02:53:26;;;;;;;3.75;1.90;;;7.30;1.00;;;7.43;43.62;98889.63;4958113;28;20212;-74
2022/02/19 02:55:55;;;;;;;5.95;1.90;;;7.30;1.00;;;7.37;43.85;98890.53;4958111;28;20203;-74
2022/02/19 02:58:24;;;;;;;3.65;2.40;;;7.30;1.00;;;7.36;43.95;98885.38;4972633;28;20240;-75
2022/02/19 03:00:56;;;;;;;4.55;2.05;;;7.20;1.00;;;7.30;43.81;98857.56;4956162;29;20196;-74
2022/02/19 03:03:24;;;;;;;6.15;3.03;;;7.20;1.00;;;7.26;43.85;98885.16;4955965;29;20235;-74
2022/02/19 03:05:53;;;;;;;10.77;4.38;;;7.20;1.00;;;7.25;43.52;98884.31;4956425;29;20194;-74
2022/02/19 03:08:23;;;;;;;5.78;1.70;;;7.10;1.00;;;7.26;43.54;98898.59;4957457;28;20208;-74
2022/02/19 03:10:51;;;;;;;5.40;2.65;;;7.10;1.00;;;7.22;43.80;98887.44;4956312;29;20341;-75
2022/02/19 03:13:20;;;;;;;9.45;1.95;;;7.10;1.00;;;7.18;43.86;98837.84;4972627;28;20200;-74
2022/02/19 03:15:48;;;;;;;5.75;2.72;;;7.10;1.00;;;7.16;44.25;98855.28;4955759;29;20215;-74
2022/02/19 03:18:17;;;;;;;5.82;2.22;;;7.10;1.00;;;7.16;43.79;98892.94;4971652;28;20212;-74
2022/02/19 03:20:47;;;;;;;7.85;1.75;;;7.10;1.00;;;7.20;43.76;98921.03;4955533;29;20207;-74
2022/02/19 03:23:15;;;;;;;6.32;3.10;;;7.10;1.00;;;7.18;44.33;98888.13;4957437;28;20680;-75
2022/02/19 03:25:46;;;;;;;3.30;1.13;;;7.10;1.00;;;7.22;44.11;98908.97;4955920;29;20204;-76
2022/02/19 03:28:14;;;;;;;4.40;1.65;;;7.10;1.00;;;7.26;43.76;98912.03;4956122;28;20590;-76
2022/02/19 03:30:43;;;;;;;5.07;2.00;;;7.10;1.00;;;7.25;44.00;98903.16;4955421;29;20185;-76
2022/02/19 03:33:37;;;;;;;2.85;1.05;;;7.20;1.00;;;7.24;44.34;98925.72;4953658;29;20265;-74
2022/02/19 03:36:07;;;;;;;8.48;1.63;;;7.20;1.00;;;7.22;44.54;98941.25;4955478;29;20207;-75
2022/02/19 03:38:35;;;;;;;3.08;1.48;;;7.10;1.00;;;7.26;44.58;98947.81;4955690;28;20208;-75
2022/02/19 03:41:09;;;;;;;7.25;2.70;;;7.10;1.00;;;7.20;44.50;98948.75;4955286;29;20207;-75
2022/02/19 03:43:38;;;;;;;4.32;2.00;;;7.10;1.00;;;7.19;44.67;98939.03;4955051;29;20207;-74
2022/02/19 03:46:07;;;;;;;3.55;1.50;;;7.10;1.00;;;7.13;44.67;98953.38;4971794;28;20211;-74
2022/02/19 03:48:56;;;;;;;7.05;2.85;;;7.00;1.00;;;7.12;45.09;98973.25;4955491;28;20301;-75
2022/02/19 03:51:26;;;;;;;4.22;1.52;;;7.00;1.00;;;7.12;45.11;98945.53;4955859;29;20196;-75
2022/02/19 03:53:56;;;;;;;6.78;1.95;;;7.00;1.00;;;7.13;45.14;98966.81;4956145;29;20204;-74
2022/02/19 03:56:29;;;;;;;8.05;1.88;;;7.00;1.00;;;7.12;44.85;98946.34;4955531;29;20192;-74
2022/02/19 03:59:03;;;;;;;6.72;1.90;;;7.00;1.00;;;7.10;44.96;98975.34;4955634;28;20715;-74
2022/02/19 04:01:31;;;;;;;6.07;1.10;;;7.00;1.00;;;7.10;44.90;98978.06;4955849;29;20572;-75
2022/02/19 04:04:06;;;;;;;4.82;1.80;;;7.00;1.00;;;7.12;44.93;99010.91;4971885;28;20719;-75
2022/02/19 04:06:36;;;;;;;3.70;1.27;;;7.00;1.00;;;7.13;45.01;99001.78;4955465;29;20620;-75
2022/02/19 04:09:05;;;;;;;5.75;2.30;;;7.00;1.00;;;7.08;45.49;98980.13;4955042;28;20221;-73
2022/02/19 04:11:39;;;;;;;4.97;2.05;;;7.00;1.00;;;7.10;45.41;99031.00;4955106;29;20184;-74
2022/02/19 04:14:07;;;;;;;14.93;2.58;;;7.00;1.00;;;7.14;45.89;99034.88;4956960;28;20189;-75
2022/02/19 04:16:51;;;;;;;3.92;1.50;;;7.00;1.00;;;7.08;46.25;99008.88;4954624;29;20204;-74
2022/02/19 04:19:24;;;;;;;4.75;1.65;;;7.00;1.00;;;7.06;46.34;99017.22;4954442;28;20212;-75
2022/02/19 04:21:53;;;;;;;5.07;1.55;;;7.00;1.00;;;7.06;46.45;99052.16;4955361;29;20212;-74
2022/02/19 04:24:23;;;;;;;2.95;1.75;;;7.00;1.00;;;7.01;46.80;99060.09;4955134;29;20212;-74
2022/02/19 04:27:02;;;;;;;8.40;1.65;;;6.90;1.10;;;7.02;47.17;99045.56;4954741;29;20707;-74
2022/02/19 04:29:30;;;;;;;7.63;2.90;;;6.90;1.60;;;6.97;47.86;99081.19;4955985;28;20704;-74
2022/02/19 04:32:03;;;;;;;8.27;2.30;;;6.90;2.20;;;6.89;48.70;99075.28;4955751;28;20203;-73
2022/02/19 04:34:40;;;;;;;3.60;1.75;;;6.80;2.60;;;6.78;49.79;99095.66;4954235;29;20601;-74
2022/02/19 04:37:09;;;;;;;5.45;1.38;;;6.70;4.20;;;6.72;50.81;99093.06;4954026;29;20219;-77
2022/02/19 04:39:41;;;;;;;2.67;1.60;;;6.60;5.20;;;6.68;51.81;99110.66;4953581;28;20239;-75
2022/02/19 04:42:25;;;;;;;4.07;1.88;;;6.60;6.40;;;6.63;51.76;99103.25;4953902;29;20192;-74
2022/02/19 04:44:55;;;;;;;7.00;1.70;;;6.60;6.80;;;6.59;52.69;99120.03;4954534;29;20290;-73
2022/02/19 04:47:24;;;;;;;10.07;1.42;;;6.50;7.50;;;6.59;52.65;99138.84;4954731;29;20189;-73
2022/02/19 04:49:52;;;;;;;5.28;2.50;;;6.50;8.20;;;6.52;53.24;99128.97;4954909;28;20196;-73
2022/02/19 04:52:21;;;;;;;6.15;2.15;;;6.50;8.70;;;6.55;53.30;99133.91;4970926;28;20212;-73
2022/02/19 04:54:49;;;;;;;5.88;1.45;;;6.40;9.10;;;6.51;53.42;99137.25;4954448;29;20196;-74
2022/02/19 04:57:26;;;;;;;4.13;1.30;;;6.40;9.40;;;6.48;53.78;99183.38;4954215;29;20625;-75
2022/02/19 04:59:55;;;;;;;5.28;2.47;;;6.40;9.60;;;6.48;53.85;99176.16;4954189;29;20219;-73
2022/02/19 05:02:32;;;;;;;3.75;2.30;;;6.40;10.00;;;6.43;53.75;99181.34;4954198;29;20196;-74
2022/02/19 05:05:00;;;;;;;5.57;2.00;;;6.30;10.30;;;6.44;54.17;99200.94;4954096;29;20199;-74
2022/02/19 05:07:31;;;;;;;3.75;1.42;;;6.30;10.70;;;6.40;54.46;99205.94;4970087;28;20220;-74
2022/02/19 05:09:59;;;;;;;4.50;2.30;;;6.30;11.10;;;6.42;54.86;99213.78;4954137;29;20616;-75
2022/02/19 05:12:40;;;;;;;8.95;1.65;;;6.30;11.60;;;6.36;54.86;99210.09;4954596;29;20240;-76
2022/02/19 05:15:14;;;;;;;7.32;2.20;;;6.30;12.00;;;6.35;55.23;99202.25;4954709;29;20778;-74
2022/02/19 05:17:52;;;;;;;2.47;2.08;;;6.30;12.40;;;6.32;55.12;99224.19;4954292;29;20212;-73
2022/02/19 05:20:23;;;;;;;6.18;2.65;;;6.20;12.50;;;6.28;55.37;99239.91;4954178;29;20727;-74
2022/02/19 05:22:53;;;;;;;10.07;2.58;;;6.20;13.10;;;6.27;55.43;99238.25;4954504;29;20180;-74
2022/02/19 05:25:28;;;;;;;7.53;2.45;;;6.20;13.10;;;6.28;55.47;99249.84;4954193;29;20227;-75
2022/02/19 05:28:01;;;;;;;2.63;1.63;;;6.20;13.40;;;6.27;55.49;99243.63;4953897;29;20239;-74
2022/02/19 05:30:29;;;;;;;6.95;1.77;;;6.20;13.50;;;6.25;55.87;99256.44;4955147;28;20243;-74
2022/02/19 05:33:26;;;;;;;18.52;1.90;;;6.20;14.10;;;6.19;56.00;99273.44;4955466;28;20215;-76
2022/02/19 05:35:55;;;;;;;9.82;2.30;;;6.10;14.10;;;6.19;56.41;99284.16;4954123;29;20720;-75
2022/02/19 05:38:23;;;;;;;7.70;2.30;;;6.10;14.60;;;6.15;56.57;99274.88;4955066;28;20296;-74
2022/02/19 05:40:52;;;;;;;4.40;2.20;;;6.10;14.80;;;6.16;56.46;99297.19;4954028;29;20231;-75
2022/02/19 05:43:22;;;;;;;6.05;1.83;;;6.10;15.40;;;6.10;56.90;99306.91;4970443;28;20187;-75
2022/02/19 05:45:52;;;;;;;9.20;2.10;;;6.00;15.50;;;6.11;56.83;99332.72;4954711;29;20185;-75
2022/02/19 05:48:21;;;;;;;6.95;2.65;;;6.00;16.20;;;6.09;56.93;99326.75;4953953;29;20236;-75
2022/02/19 05:51:15;;;;;;;7.93;2.38;;;6.00;16.40;;;6.07;56.96;99326.13;4954385;29;20219;-75
2022/02/19 05:53:56;;;;;;;3.00;1.75;;;6.00;16.70;;;6.03;57.20;99346.38;4970097;28;20328;-75
2022/02/19 05:56:24;;;;;;;11.90;1.95;;;5.90;17.00;;;6.02;57.33;99331.31;4953864;29;20251;-74
2022/02/19 05:58:54;;;;;;;2.97;2.15;;;5.90;17.50;;;5.96;57.68;99380.47;4953895;29;20216;-74
2022/02/19 06:01:23;;;;;;;1.90;1.55;;;5.90;18.10;;;5.93;58.04;99386.28;4953983;28;20226;-76
2022/02/19 06:04:02;;;;;;;2.30;1.27;;;5.90;18.70;;;5.88;58.37;99384.22;4958908;28;20164;-75
2022/02/19 06:06:31;;;;;;;3.30;2.00;;;5.80;19.50;;;5.87;58.43;99392.47;4957835;29;20199;-74
2022/02/19 06:08:59;;;;;;;4.28;1.75;;;5.80;20.20;;;5.85;58.87;99411.44;4959445;28;20235;-75
2022/02/19 06:11:33;;;;;;;4.65;3.13;;;5.80;20.70;;;5.81;58.92;99401.34;4973729;28;20189;-75
2022/02/19 06:14:17;;;;;;;4.20;1.55;;;5.80;21.70;;;5.82;59.05;99413.72;4957894;29;20300;-76
2022/02/19 06:16:53;;;;;;;4.30;2.20;;;5.70;22.60;;;5.80;59.58;99423.84;4957729;29;20203;-75
2022/02/19 06:19:23;;;;;;;9.13;1.95;;;5.70;24.00;;;5.78;59.92;99432.09;4957415;28;20215;-76
2022/02/19 06:21:51;;;;;;;3.90;2.03;;;5.70;24.60;;;5.82;59.74;99462.84;4958933;28;20555;-75
2022/02/19 06:24:21;;;;;;;3.28;1.70;;;5.70;24.60;;;5.79;59.72;99454.38;4957209;29;20191;-75
2022/02/19 06:26:50;;;;;;;4.75;1.52;;;5.70;25.40;;;5.81;59.81;99474.63;4973896;28;20239;-75
2022/02/19 06:29:33;;;;;;;3.55;1.05;;;5.70;25.90;;;5.77;60.04;99472.56;4957830;28;20220;-74
2022/02/19 06:32:05;;;;;;;5.55;2.15;;;5.70;26.20;;;5.76;60.47;99479.78;4957458;29;20220;-74
2022/02/19 06:34:35;;;;;;;11.27;2.60;;;5.70;27.60;;;5.69;60.74;99493.22;4958897;28;20192;-74
2022/02/19 06:37:12;;;;;;;4.60;1.77;;;5.70;28.20;;;5.63;60.50;99512.81;4974000;28;20218;-75
2022/02/19 06:39:40;;;;;;;4.32;1.42;;;5.60;28.80;;;5.62;60.64;99497.72;4957040;28;20219;-75
2022/02/19 06:42:09;;;;;;;2.42;1.65;;;5.60;29.60;;;5.65;60.75;99561.75;4957464;29;20196;-73
2022/02/19 06:45:07;;;;;;;1.55;1.08;;;5.60;29.80;;;5.65;60.66;99524.16;4955828;29;20210;-74
2022/02/19 06:47:37;;;;;;;4.15;1.38;;;5.60;31.10;;;5.66;60.88;99535.72;4958408;28;20757;-74
2022/02/19 06:50:10;;;;;;;4.30;1.10;;;5.60;31.80;;;5.64;60.96;99549.34;4957390;29;20184;-75
2022/02/19 06:52:42;;;;;;;2.15;1.20;;;5.60;32.00;;;5.69;61.06;99551.41;4957905;29;20188;-74
2022/02/19 06:55:13;;;;;;;3.72;1.35;;;5.60;33.50;;;5.63;61.62;99558.41;4957909;29;20262;-76
2022/02/19 06:57:42;;;;;;;3.50;1.10;;;5.60;34.60;;;5.67;61.88;99562.34;4958375;28;20204;-75
2022/02/19 07:00:14;;;;;;;3.35;1.50;;;5.60;36.70;;;5.66;61.97;99576.78;4958237;28;20592;-75
2022/02/19 07:02:47;;;;;;;1.38;0.90;;;5.60;37.50;;;5.62;62.34;99559.44;4957771;29;20198;-76
2022/02/19 07:05:17;;;;;;;2.60;0.98;;;5.60;39.60;;;5.53;62.64;99584.81;4956536;29;20287;-76
2022/02/19 07:08:06;;;;;;;3.97;2.08;;;5.50;47.20;;;5.57;62.69;99607.53;4956973;28;20308;-76
2022/02/19 07:10:35;;;;;;;3.00;1.20;;;5.50;46.60;;;5.59;62.66;99604.66;4955717;29;20208;-76
2022/02/19 07:13:05;;;;;;;1.38;0.88;;;5.50;48.90;;;5.51;63.07;99623.63;4955683;28;20207;-72
2022/02/19 07:15:36;;;;;;;1.67;1.20;;;5.50;50.40;;;5.47;63.54;99590.16;4956140;29;20220;-75
2022/02/19 07:18:25;;;;;;;5.55;1.70;;;5.40;53.30;;;5.47;63.78;99631.22;4971911;28;20216;-73
2022/02/19 07:21:20;;;;;;;4.10;0.82;;;5.40;57.30;;;5.45;64.25;99646.69;4953151;28;20219;-75
2022/02/19 07:23:49;;;;;;;2.50;1.02;;;5.40;63.00;;;5.43;64.87;99645.22;4956277;29;20197;-76
2022/02/19 07:26:21;;;;;;;1.48;0.93;;;5.40;68.20;;;5.40;64.67;99646.47;4955987;29;20188;-75
2022/02/19 07:28:53;;;;;;;1.63;1.23;;;5.40;67.50;;;5.41;64.86;99650.81;4955786;29;20215;-75
2022/02/19 07:31:26;;;;;;;2.95;1.00;;;5.30;71.80;;;5.44;64.42;99671.88;4955892;29;20193;-75
2022/02/19 07:33:56;;;;;;;3.92;1.13;;;5.40;69.20;;;5.47;64.55;99676.03;4955704;29;20212;-75
2022/02/19 07:36:30;;;;;;;2.70;1.23;;;5.40;72.00;;;5.45;64.08;99673.53;4971324;28;20196;-76
2022/02/19 07:39:00;;;;;;;3.95;1.75;;;5.40;69.20;;;5.49;63.90;99716.88;4971914;28;20228;-75
2022/02/19 07:41:31;;;;;;;1.40;1.05;;;5.40;66.50;;;5.49;63.53;99703.47;4955627;29;20247;-74
2022/02/19 07:44:14;;;;;;;1.90;0.90;;;5.40;63.70;;;5.55;63.70;99716.94;4955507;29;20252;-74
2022/02/19 07:47:02;;;;;;;3.83;1.75;;;5.40;67.30;;;5.56;63.38;99750.78;4955097;29;20681;-74
2022/02/19 07:58:34;;;;;;;3.35;1.25;;;5.40;66.40;;;5.53;63.80;99753.84;4994824;28;20222;-70
2022/02/19 08:01:08;;;;;;;2.05;1.35;;;5.40;67.70;;;5.59;63.79;99768.34;4981977;28;20195;-67
2022/02/19 08:03:48;;;;;;;3.03;1.10;;;5.50;66.10;;;5.62;64.23;99774.13;4980864;28;20203;-71
2022/02/19 08:06:17;;;;;;;1.98;1.20;;;5.50;68.70;;;5.63;64.27;99775.81;4978724;28;20230;-71
2022/02/19 08:08:45;;;;;;;4.30;1.48;;;5.60;69.40;;;5.66;63.57;99793.38;4978008;28;20226;-72
2022/02/19 08:11:19;;;;;;;5.55;2.05;;;5.60;66.00;;;5.68;63.55;99796.69;4980609;28;20188;-70
2022/02/19 08:13:48;;;;;;;2.00;1.00;;;5.60;65.20;;;5.67;63.54;99809.25;4980354;28;20183;-71
2022/02/19 08:16:17;;;;;;;2.10;0.90;;;5.60;65.70;;;5.67;63.54;99803.06;4978830;28;20250;-70
2022/02/19 08:18:50;;;;;;;4.07;1.50;;;5.60;65.50;;;5.78;63.31;99817.81;4978840;28;20314;-71
2022/02/19 08:21:23;;;;;;;3.53;1.55;;;5.70;63.80;;;5.82;62.50;99816.38;4979621;28;20659;-69
2022/02/19 08:23:52;;;;;;;3.15;1.38;;;5.70;58.00;;;5.91;63.18;99850.13;4978391;28;20203;-70
2022/02/19 08:26:24;;;;;;;3.15;0.90;;;5.80;60.00;;;5.84;62.79;99866.19;4977272;28;20250;-70
2022/02/19 08:28:54;;;;;;;3.40;1.20;;;5.80;57.60;;;5.84;62.99;99863.50;4975610;28;20223;-71
2022/02/19 08:31:23;;;;;;;0.90;0.70;;;5.80;59.10;;;5.78;63.21;99877.69;4976081;28;20199;-71
2022/02/19 08:33:54;;;;;;;1.75;0.90;;;5.70;59.60;;;5.63;63.82;99850.13;4977776;28;20223;-70
2022/02/19 08:36:23;;;;;;;3.97;1.30;;;5.60;64.00;;;5.58;64.69;99882.91;4976933;28;20588;-69
2022/02/19 08:38:52;;;;;;;2.55;1.60;;;5.50;74.40;;;5.57;65.56;99897.34;4975300;28;20219;-70
2022/02/19 08:41:21;;;;;;;1.98;0.88;;;5.50;83.10;;;5.59;65.58;99916.78;4976747;28;20180;-70
2022/02/19 08:43:51;;;;;;;2.95;1.23;;;5.50;87.80;;;5.59;66.06;99906.03;4971731;28;20219;-72
2022/02/19 08:46:20;;;;;;;2.88;1.25;;;5.50;90.10;;;5.60;65.43;99913.06;4961696;28;20200;-73
2022/02/19 08:48:49;;;;;;;2.40;1.25;;;5.60;89.90;;;5.49;66.23;99926.16;4975614;28;20211;-72
2022/02/19 08:51:20;;;;;;;1.60;1.23;;;5.50;91.50;;;5.36;66.52;99920.69;4970744;28;20356;-72
2022/02/19 08:53:49;;;;;;;1.95;1.20;;;5.30;94.10;;;5.40;66.57;99944.25;4954907;29;20216;-71
2022/02/19 08:56:19;;;;;;;2.30;1.58;;;5.30;95.30;;;5.48;66.44;99933.38;4954571;29;20216;-71
2022/02/19 08:58:48;;;;;;;3.85;1.33;;;5.40;95.90;;;5.49;66.43;99950.31;4955728;28;20204;-72
2022/02/19 09:01:17;;;;;;;2.97;1.35;;;5.40;96.30;;;5.49;65.84;99951.16;4954316;29;20267;-72
2022/02/19 09:03:46;;;;;;;4.13;1.52;;;5.40;93.80;;;5.45;66.07;99965.97;4955752;29;20661;-71
2022/02/19 09:06:16;;;;;;;2.15;1.02;;;5.40;93.30;;;5.50;66.69;99968.94;4954374;29;20200;-72
2022/02/19 09:08:47;;;;;;;2.33;1.45;;;5.40;96.00;;;5.47;67.29;99990.75;4955490;28;20652;-73
2022/02/19 09:11:16;;;;;;;2.15;1.20;;;5.40;99.20;;;5.48;67.43;99995.09;4955052;28;20654;-72
2022/02/19 09:13:47;;;;;;;3.30;1.30;;;5.40;99.90;;;5.56;67.62;99992.31;4953738;29;20196;-72
2022/02/19 09:16:17;;;;;;;1.45;1.35;;;5.50;99.90;;;5.51;67.28;100016.22;4954700;29;20208;-73
2022/02/19 09:18:46;;;;;;;2.05;1.33;;;5.40;99.90;;;5.31;67.91;100025.88;4956309;28;20212;-71
2022/02/19 09:21:16;;;;;;;3.40;1.73;;;5.30;99.90;;;5.30;67.83;100016.19;4954612;29;20684;-70
2022/02/19 09:23:47;;;;;;;2.08;1.23;;;5.30;99.90;;;5.51;67.63;100018.06;4954308;29;20199;-72
2022/02/19 09:26:17;;;;;;;6.05;1.48;;;5.40;99.90;;;5.84;67.24;100038.00;4954196;29;20196;-70
2022/02/19 09:28:46;;;;;;;4.18;1.70;;;5.60;99.90;;;5.82;66.45;100040.03;4956540;28;20219;-71
2022/02/19 09:31:16;;;;;;;4.15;1.40;;;5.80;97.90;;;6.08;65.99;100036.81;4955236;29;20223;-71
2022/02/19 09:33:45;;;;;;;7.10;2.00;;;5.90;97.20;;;5.69;66.41;100050.66;4971333;28;20224;-71
2022/02/19 09:36:15;;;;;;;4.32;2.08;;;5.70;96.40;;;5.67;67.01;100047.31;4953740;28;20215;-70
2022/02/19 09:38:48;;;;;;;2.95;1.83;;;5.60;99.50;;;5.67;68.17;100052.69;4954137;28;20224;-70
2022/02/19 09:41:18;;;;;;;1.75;1.15;;;5.60;99.90;;;5.56;67.74;100074.69;4955689;29;20181;-72
2022/02/19 09:43:47;;;;;;;4.40;1.25;;;5.60;99.90;;;5.49;68.58;100077.28;4954542;29;20188;-72
2022/02/19 09:46:17;;;;;;;4.10;2.33;;;5.50;99.90;;;5.36;69.22;100078.97;4954368;29;20595;-70
2022/02/19 09:48:48;;;;;;;3.72;1.85;;;5.40;99.90;;;5.38;69.36;100083.13;4955738;28;20250;-72
2022/02/19 09:51:16;;;;;;;5.13;1.48;;;5.40;99.90;;;5.52;68.74;100109.09;4956354;28;20202;-69
2022/02/19 09:53:47;;;;;;;6.05;2.22;;;5.40;99.90;;;5.33;68.67;100101.63;4956351;29;20383;-71
2022/02/19 09:56:17;;;;;;;13.98;2.65;;;5.30;99.90;;;5.44;68.60;100106.53;4954956;29;20695;-71
2022/02/19 09:58:47;;;;;;;3.85;2.10;;;5.40;99.90;;;5.41;67.47;100117.66;4955998;28;20252;-73
2022/02/19 10:01:18;;;;;;;4.55;2.20;;;5.30;99.90;;;5.58;67.89;100102.13;4955525;29;20188;-70
2022/02/19 10:04:01;;;;;;;13.40;7.35;;;5.50;99.90;;;5.80;66.71;100121.81;4954228;28;20672;-70
2022/02/19 10:06:44;;;;;;;2.00;1.48;;;5.70;99.90;;;5.90;66.23;100133.09;4953982;29;20219;-70
2022/02/19 10:09:18;;;;;;;7.22;1.60;;;5.80;97.80;;;5.88;65.19;100130.59;4955378;28;20207;-70
2022/02/19 10:11:49;;;;;;;3.72;1.55;;;5.80;93.90;;;5.94;66.24;100139.75;4954821;29;20561;-72
2022/02/19 10:14:26;;;;;;;5.47;2.72;;;5.80;95.70;;;6.13;65.38;100128.38;4955771;29;20215;-71
2022/02/19 10:17:15;;;;;;;4.25;2.08;;;5.90;94.60;;;5.90;65.03;100166.16;4957049;29;20227;-70
2022/02/19 10:19:52;;;;;;;5.28;1.60;;;5.90;90.10;;;5.81;65.29;100155.69;4959268;28;20211;-72
2022/02/19 10:22:25;;;;;;;6.30;2.10;;;5.70;90.50;;;6.19;64.86;100170.59;4957929;29;20683;-71
2022/02/19 10:24:59;;;;;;;8.85;1.58;;;6.00;91.50;;;6.14;64.47;100175.72;4956039;29;20255;-70
2022/02/19 10:27:51;;;;;;;3.38;1.65;;;6.00;86.10;;;6.31;63.33;100179.81;4955947;29;20173;-71
2022/02/19 10:30:23;;;;;;;9.10;2.83;;;6.20;75.70;;;6.23;62.62;100179.94;4956056;29;20184;-73
2022/02/19 10:32:54;;;;;;;5.00;1.80;;;6.20;68.10;;;6.43;62.26;100209.69;4956165;29;20207;-71
2022/02/19 10:35:33;;;;;;;5.75;1.98;;;6.30;64.50;;;6.40;61.99;100200.16;4968947;28;20211;-70
2022/02/19 10:38:04;;;;;;;11.13;2.10;;;6.30;58.80;;;6.38;61.87;100202.22;4955035;28;20254;-71
2022/02/19 10:40:40;;;;;;;3.05;2.75;;;6.30;54.70;;;6.49;60.81;100200.84;4953420;29;20196;-70
2022/02/19 10:43:17;;;;;;;4.95;2.70;;;6.40;50.50;;;6.59;59.85;100214.78;4953455;29;20601;-70
2022/02/19 10:45:58;;;;;;;3.85;1.77;;;6.50;46.30;;;6.65;59.65;100213.19;4953124;29;20204;-71
2022/02/19 10:48:30;;;;;;;5.00;1.80;;;6.60;43.70;;;6.72;59.19;100212.25;4954548;28;20223;-71
2022/02/19 10:51:10;;;;;;;2.90;1.30;;;6.60;40.00;;;6.82;58.67;100222.66;4956553;29;20196;-71
2022/02/19 10:53:43;;;;;;;6.53;2.58;;;6.70;37.10;;;6.89;58.36;100229.75;4961193;28;20199;-69
2022/02/19 10:56:17;;;;;;;4.22;2.28;;;6.80;35.80;;;6.93;58.21;100217.56;4972420;28;20212;-70
2022/02/19 10:59:00;;;;;;;1.52;1.17;;;6.80;34.80;;;6.70;59.11;100241.16;4956948;28;20220;-69
2022/02/19 11:01:38;;;;;;;3.30;1.83;;;6.70;34.50;;;6.66;58.82;100244.44;4956515;29;20204;-69
2022/02/19 11:04:09;;;;;;;6.25;2.50;;;6.60;34.20;;;6.77;59.18;100239.38;4956429;29;20254;-70
2022/02/19 11:06:39;;;;;;;4.55;1.35;;;6.70;36.00;;;6.53;59.00;100253.22;4956264;29;20200;-71